createdAt,value
2019-05-16T00:00:32.831Z,8.07
2019-05-16T00:01:32.828Z,8.07
2019-05-16T00:02:32.808Z,8.07
2019-05-16T00:03:32.797Z,8.10
2019-05-16T00:04:32.804Z,8.03
2019-05-16T00:05:32.774Z,7.97
2019-05-16T00:06:32.762Z,7.93
2019-05-16T00:07:32.749Z,7.85
2019-05-16T00:08:32.737Z,7.92
2019-05-16T00:09:32.725Z,7.87
2019-05-16T00:10:32.733Z,7.81
2019-05-16T00:11:32.703Z,7.85
2019-05-16T00:12:32.692Z,7.81
2019-05-16T00:13:32.680Z,7.79
2019-05-16T00:14:32.669Z,7.78
2019-05-16T00:15:32.673Z,7.79
2019-05-16T00:16:32.644Z,7.79
2019-05-16T00:17:32.638Z,7.84
2019-05-16T00:18:32.621Z,7.67
2019-05-16T00:19:32.608Z,7.94
2019-05-16T00:20:32.623Z,7.90
2019-05-16T00:21:32.586Z,7.85
2019-05-16T00:22:32.576Z,7.84
2019-05-16T00:23:32.564Z,7.85
2019-05-16T00:24:32.550Z,7.85
2019-05-16T00:25:32.540Z,7.84
2019-05-16T00:26:32.548Z,7.85
2019-05-16T00:27:32.518Z,7.82
2019-05-16T00:28:32.519Z,7.89
2019-05-16T00:29:32.492Z,7.79
2019-05-16T00:30:32.482Z,7.77
2019-05-16T00:31:32.472Z,7.87
2019-05-16T00:32:32.476Z,7.85
2019-05-16T00:33:32.448Z,7.84
2019-05-16T00:34:32.435Z,7.84
2019-05-16T00:35:32.426Z,7.82
2019-05-16T00:36:32.412Z,7.97
2019-05-16T00:37:32.423Z,7.93
2019-05-16T00:38:32.388Z,7.99
2019-05-16T00:39:32.379Z,8.02
2019-05-16T00:40:32.367Z,7.94
2019-05-16T00:41:32.354Z,7.96
2019-05-16T00:42:32.342Z,7.97
2019-05-16T00:43:32.351Z,7.93
2019-05-16T00:44:32.318Z,7.93
2019-05-16T00:45:32.309Z,7.96
2019-05-16T00:46:32.296Z,7.90
2019-05-16T00:47:32.288Z,7.90
2019-05-16T00:48:32.289Z,8.00
2019-05-16T00:49:32.262Z,7.93
2019-05-16T00:50:32.249Z,7.90
2019-05-16T00:51:32.238Z,7.96
2019-05-16T00:52:32.223Z,7.90
2019-05-16T00:53:32.239Z,7.99
2019-05-16T00:54:32.204Z,7.97
2019-05-16T00:55:32.191Z,7.97
2019-05-16T00:56:32.179Z,7.93
2019-05-16T00:57:32.169Z,8.04
2019-05-16T00:58:32.159Z,7.99
2019-05-16T00:59:32.163Z,8.04
2019-05-16T01:00:32.133Z,7.97
2019-05-16T01:01:32.121Z,8.07
2019-05-16T01:02:32.125Z,8.07
2019-05-16T01:03:32.097Z,8.11
2019-05-16T01:04:32.103Z,8.04
2019-05-16T01:05:32.074Z,8.15
2019-05-16T01:06:32.064Z,8.12
2019-05-16T01:07:32.056Z,8.20
2019-05-16T01:08:32.037Z,8.11
2019-05-16T01:09:32.045Z,8.20
2019-05-16T01:10:32.015Z,8.07
2019-05-16T01:11:32.005Z,8.17
2019-05-16T01:12:31.992Z,8.17
2019-05-16T01:13:31.983Z,8.18
2019-05-16T01:14:31.988Z,8.22
2019-05-16T01:15:31.960Z,8.28
2019-05-16T01:16:31.946Z,8.22
2019-05-16T01:17:31.938Z,8.15
2019-05-16T01:18:31.924Z,8.22
2019-05-16T01:19:31.928Z,8.29
2019-05-16T01:20:31.900Z,8.35
2019-05-16T01:21:31.891Z,8.32
2019-05-16T01:22:31.877Z,8.26
2019-05-16T01:23:31.864Z,8.28
2019-05-16T01:24:31.872Z,8.39
2019-05-16T01:25:31.841Z,8.32
2019-05-16T01:26:31.829Z,8.39
2019-05-16T01:27:31.816Z,8.30
2019-05-16T01:28:31.806Z,8.42
2019-05-16T01:29:31.812Z,8.32
2019-05-16T01:30:31.784Z,8.42
2019-05-16T01:31:31.776Z,8.36
2019-05-16T01:32:32.135Z,8.33
2019-05-16T01:33:31.751Z,8.30
2019-05-16T01:34:31.754Z,8.42
2019-05-16T01:35:31.725Z,8.40
2019-05-16T01:36:36.608Z,8.42
2019-05-16T01:37:32.701Z,8.30
2019-05-16T01:38:31.689Z,8.35
2019-05-16T01:39:31.696Z,8.32
2019-05-16T01:40:31.667Z,8.28
2019-05-16T01:41:31.656Z,8.40
2019-05-16T01:42:31.643Z,8.39
2019-05-16T01:43:31.633Z,8.25
2019-05-16T01:44:31.643Z,8.15
2019-05-16T01:45:31.608Z,8.22
2019-05-16T01:46:31.597Z,8.29
2019-05-16T01:47:31.586Z,8.18
2019-05-16T01:48:31.574Z,8.20
2019-05-16T01:49:31.563Z,8.22
2019-05-16T01:50:31.568Z,8.25
2019-05-16T01:51:31.539Z,8.14
2019-05-16T01:52:31.526Z,8.15
2019-05-16T01:53:31.515Z,8.15
2019-05-16T01:54:31.504Z,8.28
2019-05-16T01:55:31.510Z,8.26
2019-05-16T01:56:31.482Z,8.25
2019-05-16T01:57:31.467Z,8.12
2019-05-16T01:58:31.456Z,8.22
2019-05-16T01:59:31.446Z,8.21
2019-05-16T02:00:36.904Z,8.10
2019-05-16T02:01:32.420Z,8.28
2019-05-16T02:02:31.411Z,8.32
2019-05-16T02:03:31.398Z,8.25
2019-05-16T02:04:31.394Z,8.25
2019-05-16T02:05:31.376Z,8.32
2019-05-16T02:06:31.384Z,8.29
2019-05-16T02:07:31.352Z,8.28
2019-05-16T02:08:31.341Z,8.33
2019-05-16T02:09:31.328Z,8.42
2019-05-16T02:10:31.318Z,8.37
2019-05-16T02:11:31.324Z,8.50
2019-05-16T02:12:31.292Z,8.36
2019-05-16T02:13:31.280Z,8.36
2019-05-16T02:14:31.273Z,8.40
2019-05-16T02:15:31.259Z,8.48
2019-05-16T02:16:31.269Z,8.44
2019-05-16T02:17:31.272Z,8.51
2019-05-16T02:18:31.224Z,8.44
2019-05-16T02:19:31.213Z,8.45
2019-05-16T02:20:31.203Z,8.58
2019-05-16T02:21:31.193Z,8.57
2019-05-16T02:22:31.199Z,8.62
2019-05-16T02:23:31.167Z,8.55
2019-05-16T02:24:31.154Z,8.66
2019-05-16T02:25:31.144Z,8.65
2019-05-16T02:26:31.135Z,8.63
2019-05-16T02:27:31.139Z,8.66
2019-05-16T02:28:39.777Z,8.62
2019-05-16T02:29:32.101Z,8.79
2019-05-16T02:30:31.591Z,8.69
2019-05-16T02:31:31.474Z,8.71
2019-05-16T02:32:31.467Z,8.73
2019-05-16T02:33:31.880Z,8.75
2019-05-16T02:34:31.042Z,8.69
2019-05-16T02:35:31.289Z,8.84
2019-05-16T02:36:31.462Z,8.79
2019-05-16T02:37:34.809Z,8.88
2019-05-16T02:38:31.725Z,8.87
2019-05-16T02:39:30.983Z,8.75
2019-05-16T02:40:31.437Z,8.79
2019-05-16T02:41:31.187Z,8.90
2019-05-16T02:42:31.409Z,8.78
2019-05-16T02:43:31.495Z,8.91
2019-05-16T02:44:31.933Z,8.93
2019-05-16T02:45:32.540Z,8.84
2019-05-16T02:46:31.062Z,8.65
2019-05-16T02:47:34.609Z,8.76
2019-05-16T02:48:31.612Z,8.76
2019-05-16T02:49:34.084Z,8.76
2019-05-16T02:50:31.855Z,8.86
2019-05-16T02:51:31.532Z,8.78
2019-05-16T02:52:31.718Z,8.75
2019-05-16T02:53:31.175Z,8.72
2019-05-16T02:54:31.636Z,8.68
2019-05-16T02:55:31.115Z,8.76
2019-05-16T02:56:31.724Z,8.78
2019-05-16T02:57:31.608Z,8.75
2019-05-16T02:58:31.013Z,8.79
2019-05-16T02:59:30.923Z,8.76
2019-05-16T03:00:30.960Z,8.78
2019-05-16T03:01:31.675Z,8.81
2019-05-16T03:02:31.329Z,8.81
2019-05-16T03:03:31.642Z,8.79
2019-05-16T03:04:30.878Z,8.69
2019-05-16T03:05:30.721Z,8.73
2019-05-16T03:06:32.056Z,8.73
2019-05-16T03:07:40.594Z,8.69
2019-05-16T03:08:32.092Z,8.76
2019-05-16T03:09:30.684Z,8.68
2019-05-16T03:10:31.211Z,8.68
2019-05-16T03:11:31.476Z,8.54
2019-05-16T03:12:31.124Z,8.72
2019-05-16T03:13:31.213Z,8.57
2019-05-16T03:14:31.517Z,8.62
2019-05-16T03:15:31.142Z,8.68
2019-05-16T03:16:31.587Z,8.78
2019-05-16T03:17:31.805Z,8.71
2019-05-16T03:18:31.186Z,8.78
2019-05-16T03:19:31.245Z,8.72
2019-05-16T03:20:31.543Z,8.76
2019-05-16T03:21:30.930Z,8.75
2019-05-16T03:22:31.503Z,8.69
2019-05-16T03:23:31.023Z,8.79
2019-05-16T03:24:31.105Z,8.71
2019-05-16T03:25:31.122Z,8.79
2019-05-16T03:26:31.495Z,8.75
2019-05-16T03:27:30.745Z,8.83
2019-05-16T03:28:30.797Z,8.83
2019-05-16T03:29:30.963Z,8.87
2019-05-16T03:30:35.018Z,8.81
2019-05-16T03:31:34.106Z,8.87
2019-05-16T03:32:34.036Z,8.87
2019-05-16T03:33:35.161Z,8.93
2019-05-16T03:34:34.481Z,8.93
2019-05-16T03:35:33.920Z,8.87
2019-05-16T03:36:34.544Z,8.81
2019-05-16T03:37:30.855Z,9.01
2019-05-16T03:38:30.806Z,8.97
2019-05-16T03:39:31.352Z,9.10
2019-05-16T03:40:31.342Z,9.06
2019-05-16T03:41:30.963Z,9.05
2019-05-16T03:42:31.123Z,9.15
2019-05-16T03:43:31.016Z,8.99
2019-05-16T03:44:31.687Z,9.18
2019-05-16T03:45:31.929Z,9.18
2019-05-16T03:46:30.928Z,9.06
2019-05-16T03:47:31.390Z,9.04
2019-05-16T03:48:31.495Z,9.09
2019-05-16T03:49:31.285Z,9.06
2019-05-16T03:50:30.758Z,9.09
2019-05-16T03:51:30.946Z,9.02
2019-05-16T03:52:30.990Z,9.09
2019-05-16T03:53:31.706Z,8.99
2019-05-16T03:54:31.435Z,8.99
2019-05-16T03:55:32.492Z,9.12
2019-05-16T03:56:30.658Z,8.99
2019-05-16T03:57:30.689Z,9.04
2019-05-16T03:58:30.993Z,9.10
2019-05-16T03:59:31.534Z,8.97
2019-05-16T04:00:31.611Z,9.16
2019-05-16T04:01:31.351Z,9.05
2019-05-16T04:02:30.899Z,9.04
2019-05-16T04:03:33.125Z,9.02
2019-05-16T04:04:30.839Z,9.05
2019-05-16T04:05:31.828Z,9.05
2019-05-16T04:06:31.112Z,9.01
2019-05-16T04:07:31.696Z,9.01
2019-05-16T04:08:30.975Z,9.09
2019-05-16T04:09:31.509Z,9.18
2019-05-16T04:10:30.970Z,9.31
2019-05-16T04:11:32.065Z,9.38
2019-05-16T04:12:30.835Z,9.38
2019-05-16T04:13:31.405Z,9.42
2019-05-16T04:14:30.946Z,9.46
2019-05-16T04:15:31.144Z,9.40
2019-05-16T04:16:31.340Z,9.42
2019-05-16T04:17:31.642Z,9.40
2019-05-16T04:18:31.796Z,9.43
2019-05-16T04:19:31.361Z,9.31
2019-05-16T04:20:30.550Z,9.30
2019-05-16T04:21:32.278Z,9.25
2019-05-16T04:22:31.861Z,9.28
2019-05-16T04:23:31.355Z,9.34
2019-05-16T04:24:31.585Z,9.34
2019-05-16T04:25:31.095Z,9.39
2019-05-16T04:26:30.859Z,9.35
2019-05-16T04:27:30.895Z,9.24
2019-05-16T04:28:31.796Z,9.32
2019-05-16T04:29:31.535Z,9.40
2019-05-16T04:30:31.277Z,9.35
2019-05-16T04:31:30.818Z,9.35
2019-05-16T04:32:31.528Z,9.34
2019-05-16T04:33:30.849Z,9.39
2019-05-16T04:34:31.127Z,9.43
2019-05-16T04:35:31.701Z,9.38
2019-05-16T04:36:32.444Z,9.40
2019-05-16T04:37:31.446Z,9.48
2019-05-16T04:38:39.705Z,9.46
2019-05-16T04:39:31.849Z,9.56
2019-05-16T04:40:31.159Z,9.48
2019-05-16T04:41:31.339Z,9.43
2019-05-16T04:42:31.109Z,9.52
2019-05-16T04:43:31.544Z,9.63
2019-05-16T04:44:31.067Z,9.60
2019-05-16T04:45:31.829Z,9.58
2019-05-16T04:46:31.447Z,9.60
2019-05-16T04:47:31.703Z,9.63
2019-05-16T04:48:31.028Z,9.68
2019-05-16T04:49:32.005Z,9.76
2019-05-16T04:50:31.139Z,9.70
2019-05-16T04:51:30.640Z,9.71
2019-05-16T04:52:30.619Z,9.78
2019-05-16T04:53:31.659Z,9.75
2019-05-16T04:54:30.767Z,9.78
2019-05-16T04:55:31.584Z,9.83
2019-05-16T04:56:30.850Z,9.85
2019-05-16T04:57:31.386Z,9.93
2019-05-16T04:58:31.689Z,9.86
2019-05-16T04:59:31.282Z,9.99
2019-05-16T05:00:31.908Z,9.99
2019-05-16T05:01:30.692Z,10.01
2019-05-16T05:02:30.985Z,10.01
2019-05-16T05:03:31.540Z,10.06
2019-05-16T05:04:30.647Z,10.12
2019-05-16T05:05:33.066Z,10.00
2019-05-16T05:06:31.343Z,10.04
2019-05-16T05:07:31.262Z,10.04
2019-05-16T05:08:30.796Z,10.18
2019-05-16T05:09:31.565Z,10.24
2019-05-16T05:10:31.243Z,10.14
2019-05-16T05:11:30.603Z,10.33
2019-05-16T05:12:31.527Z,10.30
2019-05-16T05:13:30.677Z,10.24
2019-05-16T05:14:30.721Z,10.32
2019-05-16T05:15:30.633Z,10.32
2019-05-16T05:16:30.646Z,10.26
2019-05-16T05:17:30.676Z,10.34
2019-05-16T05:18:30.309Z,10.32
2019-05-16T05:19:30.675Z,10.40
2019-05-16T05:20:30.410Z,10.40
2019-05-16T05:21:31.345Z,10.46
2019-05-16T05:22:30.467Z,10.37
2019-05-16T05:23:30.121Z,10.46
2019-05-16T05:24:30.238Z,10.40
2019-05-16T05:25:30.873Z,10.51
2019-05-16T05:26:30.565Z,10.42
2019-05-16T05:27:30.261Z,10.40
2019-05-16T05:28:29.932Z,10.46
2019-05-16T05:29:30.728Z,10.44
2019-05-16T05:30:30.353Z,10.44
2019-05-16T05:31:34.440Z,10.52
2019-05-16T05:32:30.607Z,10.51
2019-05-16T05:33:30.204Z,10.53
2019-05-16T05:34:30.497Z,10.47
2019-05-16T05:35:31.101Z,10.39
2019-05-16T05:36:30.071Z,10.40
2019-05-16T05:37:29.787Z,10.43
2019-05-16T05:38:31.012Z,10.46
2019-05-16T05:39:30.310Z,10.55
2019-05-16T05:40:29.710Z,10.44
2019-05-16T05:41:30.263Z,10.55
2019-05-16T05:42:30.618Z,10.53
2019-05-16T05:43:31.434Z,10.60
2019-05-16T05:44:30.680Z,10.51
2019-05-16T05:45:30.626Z,10.58
2019-05-16T05:46:31.447Z,10.53
2019-05-16T05:47:30.762Z,10.46
2019-05-16T05:48:30.800Z,10.46
2019-05-16T05:49:30.152Z,10.58
2019-05-16T05:50:30.714Z,10.66
2019-05-16T05:51:30.129Z,10.58
2019-05-16T05:52:30.386Z,10.65
2019-05-16T05:53:30.027Z,10.66
2019-05-16T05:54:30.836Z,10.63
2019-05-16T05:55:31.364Z,10.70
2019-05-16T05:56:30.471Z,10.71
2019-05-16T05:57:30.035Z,10.70
2019-05-16T05:58:30.778Z,10.73
2019-05-16T05:59:30.633Z,10.73
2019-05-16T06:00:30.307Z,10.80
2019-05-16T06:01:31.380Z,10.68
2019-05-16T06:02:30.795Z,10.71
2019-05-16T06:03:32.352Z,10.70
2019-05-16T06:04:30.524Z,10.65
2019-05-16T06:05:30.562Z,10.74
2019-05-16T06:06:30.383Z,10.63
2019-05-16T06:07:30.017Z,10.70
2019-05-16T06:08:30.610Z,10.76
2019-05-16T06:09:32.097Z,10.60
2019-05-16T06:10:30.391Z,10.71
2019-05-16T06:11:30.577Z,10.71
2019-05-16T06:12:30.274Z,10.73
2019-05-16T06:13:30.902Z,10.86
2019-05-16T06:14:30.609Z,10.80
2019-05-16T06:15:30.571Z,10.73
2019-05-16T06:16:30.837Z,10.78
2019-05-16T06:17:30.751Z,10.77
2019-05-16T06:18:30.531Z,10.78
2019-05-16T06:19:29.784Z,10.77
2019-05-16T06:20:30.698Z,10.83
2019-05-16T06:21:33.019Z,10.74
2019-05-16T06:22:29.967Z,10.86
2019-05-16T06:23:30.835Z,10.88
2019-05-16T06:24:30.512Z,10.74
2019-05-16T06:25:31.609Z,10.78
2019-05-16T06:26:30.208Z,10.80
2019-05-16T06:27:30.276Z,10.65
2019-05-16T06:28:30.831Z,10.59
2019-05-16T06:29:30.796Z,10.60
2019-05-16T06:30:30.432Z,10.65
2019-05-16T06:31:31.227Z,10.66
2019-05-16T06:32:30.247Z,10.63
2019-05-16T06:33:30.522Z,10.77
2019-05-16T06:34:30.173Z,10.70
2019-05-16T06:35:29.910Z,10.81
2019-05-16T06:36:30.492Z,10.84
2019-05-16T06:37:30.730Z,10.84
2019-05-16T06:38:29.893Z,10.83
2019-05-16T06:39:39.249Z,10.76
2019-05-16T06:40:29.581Z,10.86
2019-05-16T06:41:30.281Z,10.86
2019-05-16T06:42:29.910Z,10.94
2019-05-16T06:43:30.049Z,10.89
2019-05-16T06:44:30.661Z,10.84
2019-05-16T06:45:28.156Z,10.78
2019-05-16T06:46:30.522Z,10.96
2019-05-16T06:47:30.325Z,10.84
2019-05-16T06:48:30.280Z,10.92
2019-05-16T06:49:30.240Z,10.99
2019-05-16T06:50:29.720Z,11.14
2019-05-16T06:51:30.428Z,11.03
2019-05-16T06:52:30.178Z,11.09
2019-05-16T06:53:29.908Z,10.94
2019-05-16T06:54:29.900Z,11.09
2019-05-16T06:55:29.634Z,11.13
2019-05-16T06:56:30.558Z,11.24
2019-05-16T06:57:30.130Z,11.28
2019-05-16T06:58:30.157Z,11.49
2019-05-16T06:59:29.761Z,11.65
2019-05-16T07:00:30.206Z,12.24
2019-05-16T07:01:29.744Z,12.51
2019-05-16T07:02:33.695Z,12.46
2019-05-16T07:03:30.894Z,12.62
2019-05-16T07:04:30.314Z,12.82
2019-05-16T07:05:29.900Z,12.93
2019-05-16T07:06:50.322Z,13.03
2019-05-16T07:07:30.787Z,13.12
2019-05-16T07:08:30.714Z,13.17
2019-05-16T07:09:30.017Z,13.04
2019-05-16T07:10:27.861Z,12.66
2019-05-16T07:11:27.851Z,12.64
2019-05-16T07:12:31.403Z,12.49
2019-05-16T07:13:30.438Z,12.52
2019-05-16T07:14:30.735Z,12.48
2019-05-16T07:15:29.716Z,12.57
2019-05-16T07:16:29.864Z,12.46
2019-05-16T07:17:27.782Z,12.33
2019-05-16T07:18:27.769Z,12.13
2019-05-16T07:19:30.007Z,12.24
2019-05-16T07:20:30.047Z,12.24
2019-05-16T07:21:27.734Z,12.31
2019-05-16T07:22:27.725Z,12.16
2019-05-16T07:23:29.897Z,12.34
2019-05-16T07:24:29.985Z,12.48
2019-05-16T07:25:29.995Z,12.62
2019-05-16T07:26:27.680Z,12.77
2019-05-16T07:27:27.665Z,12.99
2019-05-16T07:28:29.925Z,13.20
2019-05-16T07:29:27.641Z,13.41
2019-05-16T07:30:27.650Z,13.52
2019-05-16T07:31:29.846Z,13.61
2019-05-16T07:32:30.131Z,13.81
2019-05-16T07:33:27.597Z,13.67
2019-05-16T07:34:27.585Z,13.41
2019-05-16T07:35:27.570Z,13.20
2019-05-16T07:36:27.583Z,13.24
2019-05-16T07:37:27.552Z,13.17
2019-05-16T07:38:27.538Z,13.14
2019-05-16T07:39:27.525Z,12.97
2019-05-16T07:40:27.514Z,13.06
2019-05-16T07:41:27.519Z,12.92
2019-05-16T07:42:27.490Z,13.07
2019-05-16T07:43:27.477Z,13.33
2019-05-16T07:44:27.466Z,13.44
2019-05-16T07:45:27.455Z,13.52
2019-05-16T07:46:27.468Z,13.46
2019-05-16T07:47:27.434Z,13.62
2019-05-16T07:48:27.419Z,13.83
2019-05-16T07:49:27.407Z,13.79
2019-05-16T07:50:29.897Z,13.65
2019-05-16T07:51:27.387Z,13.62
2019-05-16T07:52:27.395Z,13.74
2019-05-16T07:53:27.361Z,13.61
2019-05-16T07:54:27.360Z,13.59
2019-05-16T07:55:27.338Z,13.65
2019-05-16T07:56:27.326Z,13.81
2019-05-16T07:57:27.333Z,13.87
2019-05-16T07:58:27.301Z,14.04
2019-05-16T07:59:27.292Z,14.07
2019-05-16T08:00:45.727Z,14.02
2019-05-16T08:01:30.523Z,14.28
2019-05-16T08:02:27.296Z,14.54
2019-05-16T08:03:27.252Z,14.61
2019-05-16T08:04:27.231Z,14.75
2019-05-16T08:05:30.403Z,14.84
2019-05-16T08:06:31.055Z,14.98
2019-05-16T08:07:33.119Z,15.03
2019-05-16T08:08:31.029Z,15.01
2019-05-16T08:09:27.177Z,15.20
2019-05-16T08:10:37.844Z,15.27
2019-05-16T08:11:30.391Z,15.39
2019-05-16T08:12:27.573Z,15.38
2019-05-16T08:13:27.151Z,15.46
2019-05-16T08:14:27.124Z,15.31
2019-05-16T08:15:27.107Z,15.35
2019-05-16T08:16:27.095Z,15.36
2019-05-16T08:17:27.086Z,15.39
2019-05-16T08:18:27.092Z,15.19
2019-05-16T08:19:27.063Z,14.61
2019-05-16T08:20:27.051Z,14.43
2019-05-16T08:21:27.854Z,14.38
2019-05-16T08:22:27.049Z,14.50
2019-05-16T08:23:27.015Z,14.54
2019-05-16T08:24:27.003Z,14.52
2019-05-16T08:25:26.996Z,14.57
2019-05-16T08:26:26.978Z,14.64
2019-05-16T08:27:26.969Z,14.60
2019-05-16T08:28:26.973Z,14.72
2019-05-16T08:29:26.945Z,14.86
2019-05-16T08:30:26.936Z,14.98
2019-05-16T08:31:26.953Z,15.13
2019-05-16T08:32:26.913Z,15.28
2019-05-16T08:33:26.920Z,15.20
2019-05-16T08:34:26.887Z,14.94
2019-05-16T08:35:26.878Z,14.78
2019-05-16T08:36:26.865Z,14.56
2019-05-16T08:37:42.560Z,14.39
2019-05-16T08:38:30.597Z,14.13
2019-05-16T08:39:26.831Z,13.99
2019-05-16T08:40:26.822Z,13.98
2019-05-16T08:41:26.810Z,14.12
2019-05-16T08:42:26.848Z,14.16
2019-05-16T08:43:26.787Z,14.20
2019-05-16T08:44:26.799Z,14.14
2019-05-16T08:45:26.763Z,14.06
2019-05-16T08:46:26.758Z,14.14
2019-05-16T08:47:26.742Z,14.17
2019-05-16T08:48:26.729Z,14.12
2019-05-16T08:49:26.749Z,13.96
2019-05-16T08:50:26.705Z,13.63
2019-05-16T08:51:26.696Z,13.55
2019-05-16T08:52:26.684Z,13.49
2019-05-16T08:53:26.672Z,13.56
2019-05-16T08:54:26.718Z,13.49
2019-05-16T08:55:26.649Z,13.44
2019-05-16T08:56:26.638Z,13.41
2019-05-16T08:57:28.121Z,13.58
2019-05-16T08:58:32.700Z,13.71
2019-05-16T08:59:27.631Z,13.62
2019-05-16T09:00:26.591Z,13.52
2019-05-16T09:01:26.631Z,13.59
2019-05-16T09:03:27.618Z,14.01
2019-05-16T09:04:26.546Z,14.27
2019-05-16T09:05:26.552Z,14.52
2019-05-16T09:06:26.522Z,14.54
2019-05-16T09:07:26.510Z,14.71
2019-05-16T09:08:26.498Z,14.61
2019-05-16T09:10:35.642Z,14.98
2019-05-16T09:10:49.861Z,15.36
2019-05-16T09:12:27.905Z,15.76
2019-05-16T09:13:29.861Z,15.97
2019-05-16T09:14:27.660Z,16.06
2019-05-16T09:15:27.331Z,16.22
2019-05-16T09:16:27.552Z,16.04
2019-05-16T09:17:27.632Z,15.78
2019-05-16T09:18:30.275Z,15.57
2019-05-16T09:18:38.242Z,15.57
2019-05-16T09:18:39.651Z,13.70
2019-05-16T09:19:27.594Z,15.68
2019-05-16T09:20:28.105Z,15.66
2019-05-16T09:21:27.438Z,15.48
2019-05-16T09:22:28.242Z,15.74
2019-05-16T09:23:26.859Z,15.94
2019-05-16T09:24:27.159Z,16.42
2019-05-16T09:25:27.514Z,17.23
2019-05-16T09:26:33.790Z,18.19
2019-05-16T09:27:27.526Z,19.05
2019-05-16T09:28:28.365Z,19.05
2019-05-16T09:29:27.342Z,18.92
2019-05-16T09:30:27.425Z,18.84
2019-05-16T09:31:27.442Z,18.72
2019-05-16T09:32:27.862Z,18.79
2019-05-16T09:33:27.137Z,18.83
2019-05-16T09:34:36.711Z,19.23
2019-05-16T09:35:28.175Z,19.54
2019-05-16T09:36:28.066Z,19.83
2019-05-16T09:37:26.877Z,19.48
2019-05-16T09:38:28.436Z,19.63
2019-05-16T09:39:27.745Z,20.18
2019-05-16T09:40:27.831Z,21.16
2019-05-16T09:41:28.774Z,22.04
2019-05-16T09:42:27.830Z,22.39
2019-05-16T09:43:28.066Z,22.44
2019-05-16T09:44:27.316Z,22.01
2019-05-16T09:45:27.274Z,21.97
2019-05-16T09:46:27.585Z,21.72
2019-05-16T09:47:28.182Z,21.75
2019-05-16T09:48:27.991Z,22.04
2019-05-16T09:49:26.264Z,22.59
2019-05-16T09:50:26.640Z,22.02
2019-05-16T09:51:27.184Z,21.81
2019-05-16T09:52:27.308Z,21.59
2019-05-16T09:53:27.555Z,21.27
2019-05-16T09:54:27.369Z,21.30
2019-05-16T09:55:26.833Z,21.13
2019-05-16T09:56:26.999Z,21.04
2019-05-16T09:57:27.838Z,21.13
2019-05-16T09:58:27.805Z,20.27
2019-05-16T09:59:26.402Z,20.30
2019-05-16T10:00:26.966Z,20.49
2019-05-16T10:01:27.600Z,20.66
2019-05-16T10:02:27.443Z,20.84
2019-05-16T10:03:27.048Z,20.77
2019-05-16T10:04:26.724Z,20.54
2019-05-16T10:05:26.631Z,20.13
2019-05-16T10:06:27.617Z,19.84
2019-05-16T10:07:28.211Z,19.79
2019-05-16T10:08:26.734Z,19.51
2019-05-16T10:09:40.255Z,19.42
2019-05-16T10:10:26.793Z,18.97
2019-05-16T10:11:31.255Z,18.28
2019-05-16T10:12:26.809Z,18.04
2019-05-16T10:13:27.758Z,18.17
2019-05-16T10:14:26.889Z,18.29
2019-05-16T10:15:26.974Z,18.52
2019-05-16T10:16:27.533Z,18.68
2019-05-16T10:17:27.296Z,18.87
2019-05-16T10:18:27.888Z,19.08
2019-05-16T10:19:27.584Z,19.18
2019-05-16T10:20:27.377Z,19.38
2019-05-16T10:21:27.213Z,19.36
2019-05-16T10:22:27.262Z,19.47
2019-05-16T10:23:25.670Z,19.68
2019-05-16T10:24:26.834Z,19.70
2019-05-16T10:25:27.654Z,19.91
2019-05-16T10:26:27.659Z,19.75
2019-05-16T10:27:26.509Z,19.94
2019-05-16T10:28:27.652Z,20.21
2019-05-16T10:29:27.452Z,20.64
2019-05-16T10:30:26.964Z,20.84
2019-05-16T10:31:41.024Z,20.81
2019-05-16T10:32:27.332Z,21.61
2019-05-16T10:33:27.559Z,22.04
2019-05-16T10:34:26.571Z,22.07
2019-05-16T10:35:29.468Z,21.63
2019-05-16T10:36:27.919Z,21.71
2019-05-16T10:37:26.911Z,21.60
2019-05-16T10:38:28.560Z,20.69
2019-05-16T10:39:26.853Z,20.50
2019-05-16T10:40:27.379Z,20.43
2019-05-16T10:41:25.446Z,20.64
2019-05-16T10:42:28.914Z,20.47
2019-05-16T10:43:26.474Z,20.43
2019-05-16T10:44:28.138Z,20.53
2019-05-16T10:45:27.328Z,20.33
2019-05-16T10:46:26.986Z,20.24
2019-05-16T10:47:28.719Z,20.16
2019-05-16T10:48:27.078Z,20.06
2019-05-16T10:49:36.562Z,19.73
2019-05-16T10:50:27.628Z,20.38
2019-05-16T10:51:26.949Z,21.71
2019-05-16T10:52:26.884Z,23.32
2019-05-16T10:53:52.242Z,24.14
2019-05-16T10:54:27.593Z,24.47
2019-05-16T10:55:27.642Z,24.88
2019-05-16T10:56:25.276Z,25.20
2019-05-16T10:57:29.422Z,24.63
2019-05-16T10:58:36.628Z,23.76
2019-05-16T10:59:56.597Z,23.64
2019-05-16T11:00:49.044Z,23.50
2019-05-16T11:01:28.675Z,22.75
2019-05-16T11:02:27.403Z,22.49
2019-05-16T11:03:27.419Z,22.44
2019-05-16T11:04:33.348Z,22.43
2019-05-16T11:05:30.481Z,21.97
2019-05-16T11:06:29.120Z,21.74
2019-05-16T11:07:29.455Z,21.78
2019-05-16T11:08:25.140Z,21.60
2019-05-16T11:09:25.147Z,21.71
2019-05-16T11:10:26.842Z,21.82
2019-05-16T11:11:27.271Z,21.91
2019-05-16T11:12:45.426Z,22.20
2019-05-16T11:13:28.063Z,22.37
2019-05-16T11:14:27.987Z,22.57
2019-05-16T11:15:27.614Z,23.15
2019-05-16T11:16:27.564Z,23.35
2019-05-16T11:17:27.666Z,22.86
2019-05-16T11:18:27.175Z,22.17
2019-05-16T11:19:28.101Z,21.41
2019-05-16T11:20:26.798Z,21.29
2019-05-16T11:21:26.817Z,21.19
2019-05-16T11:22:29.468Z,21.11
2019-05-16T11:23:30.746Z,21.11
2019-05-16T11:24:28.910Z,20.83
2019-05-16T11:25:31.668Z,21.01
2019-05-16T11:26:29.881Z,20.84
2019-05-16T11:27:24.930Z,20.69
2019-05-16T11:28:24.974Z,19.93
2019-05-16T11:29:24.950Z,19.36
2019-05-16T11:30:25.595Z,19.38
2019-05-16T11:31:26.679Z,19.35
2019-05-16T11:32:26.991Z,19.60
2019-05-16T11:33:27.929Z,19.63
2019-05-16T11:34:26.694Z,19.75
2019-05-16T11:35:27.224Z,19.60
2019-05-16T11:36:26.818Z,19.63
2019-05-16T11:37:24.812Z,19.94
2019-05-16T11:38:24.801Z,20.23
2019-05-16T11:39:24.790Z,20.59
2019-05-16T11:40:24.800Z,21.64
2019-05-16T11:41:27.325Z,21.60
2019-05-16T11:42:24.758Z,21.63
2019-05-16T11:43:24.746Z,21.88
2019-05-16T11:44:31.793Z,21.94
2019-05-16T11:45:27.068Z,22.01
2019-05-16T11:46:27.886Z,21.78
2019-05-16T11:47:27.104Z,22.34
2019-05-16T11:48:28.296Z,22.38
2019-05-16T11:49:24.679Z,22.27
2019-05-16T11:50:24.667Z,22.77
2019-05-16T11:51:27.095Z,22.80
2019-05-16T11:52:24.649Z,22.57
2019-05-16T11:53:27.985Z,22.14
2019-05-16T11:54:26.617Z,21.72
2019-05-16T11:55:32.206Z,21.38
2019-05-16T11:56:25.616Z,21.29
2019-05-16T11:57:24.588Z,21.39
2019-05-16T11:58:26.673Z,21.19
2019-05-16T11:59:24.565Z,20.71
2019-05-16T12:00:24.562Z,20.64
2019-05-16T12:01:27.274Z,20.23
2019-05-16T12:02:27.584Z,20.23
2019-05-16T12:03:24.527Z,20.16
2019-05-16T12:04:24.508Z,20.21
2019-05-16T12:05:27.131Z,20.30
2019-05-16T12:06:26.808Z,20.25
2019-05-16T12:07:32.184Z,20.42
2019-05-16T12:08:26.471Z,20.27
2019-05-16T12:09:32.181Z,20.41
2019-05-16T12:10:27.066Z,20.65
2019-05-16T12:11:27.246Z,20.65
2019-05-16T12:12:26.956Z,20.43
2019-05-16T12:13:31.651Z,20.43
2019-05-16T12:14:27.237Z,20.47
2019-05-16T12:15:24.417Z,20.20
2019-05-16T12:16:24.376Z,19.83
2019-05-16T12:17:24.383Z,20.03
2019-05-16T12:18:26.400Z,20.10
2019-05-16T12:19:33.523Z,20.59
2019-05-16T12:20:27.381Z,21.26
2019-05-16T12:21:24.324Z,21.44
2019-05-16T12:22:26.685Z,21.57
2019-05-16T12:23:24.294Z,21.88
2019-05-16T12:24:33.489Z,21.90
2019-05-16T12:25:27.322Z,21.88
2019-05-16T12:26:24.260Z,21.54
2019-05-16T12:27:31.823Z,20.87
2019-05-16T12:28:27.237Z,20.77
2019-05-16T12:29:24.228Z,20.27
2019-05-16T12:30:24.211Z,20.20
2019-05-16T12:31:24.201Z,20.08
2019-05-16T12:32:24.191Z,19.93
2019-05-16T12:33:26.897Z,19.84
2019-05-16T12:34:24.167Z,19.36
2019-05-16T12:35:24.160Z,19.15
2019-05-16T12:36:26.628Z,18.62
2019-05-16T12:37:24.148Z,17.99
2019-05-16T12:38:24.141Z,17.74
2019-05-16T12:39:26.682Z,17.59
2019-05-16T12:40:26.423Z,17.38
2019-05-16T12:41:24.097Z,17.08
2019-05-16T12:42:24.077Z,16.98
2019-05-16T12:43:43.331Z,17.11
2019-05-16T12:44:26.929Z,17.00
2019-05-16T12:45:24.050Z,16.88
2019-05-16T12:46:24.030Z,16.80
2019-05-16T12:47:24.021Z,16.71
2019-05-16T12:48:24.023Z,16.74
2019-05-16T12:49:23.996Z,16.86
2019-05-16T12:50:23.985Z,16.80
2019-05-16T12:51:26.291Z,16.90
2019-05-16T12:52:23.959Z,16.92
2019-05-16T12:53:31.813Z,16.88
2019-05-16T12:54:27.463Z,17.07
2019-05-16T12:55:23.925Z,17.10
2019-05-16T12:56:26.922Z,16.77
2019-05-16T12:57:30.154Z,16.73
2019-05-16T12:58:36.971Z,16.92
2019-05-16T12:59:26.771Z,17.11
2019-05-16T13:00:23.868Z,17.36
2019-05-16T13:01:30.704Z,17.40
2019-05-16T13:02:27.300Z,17.67